Terminal Aerodrome Forecast
Issued by NWS Upton, NY

Home | Current Version | Previous Version | Text Only | Print | Product List | Glossary On
Versions: 1 2 3 4 5 6 7 8 9 10 11 12 13 14 15 16 17 18 19 20 21 22 23 24 25 26 27 28 29 30 31 32 33 34 35 36 37 38
854
FTUS41 KOKX 281728
TAFJFK
TAF
KJFK 281728Z 2818/0124 13008KT P6SM BKN010 BKN035
     FM282100 13010KT P6SM BKN007 OVC020
     FM010000 15010KT 3SM BR BKN006 OVC010
     FM010200 16010KT 1SM RA BR OVC005
     FM010700 18010KT 1SM -RA BR OVC004 WS020/24045KT
     FM010900 19009KT 3SM BR OVC004 WS020/24045KT
     FM011500 21013G21KT 5SM -SHRA BR OVC008
     FM012300 22020G30KT 3SM SHRA BKN012=

USA.gov is the U.S. government's official web portal to all federal, state and local government web resources and services.